sensor_id;sensor_type;location;lat;lon;timestamp;P1;durP1;ratioP1;P2;durP2;ratioP2
40731;SDS011;26420;52.256;9.096;2024-02-16T00:03:08;2.75;;;0.80;;
40731;SDS011;26420;52.256;9.096;2024-02-16T00:08:11;1.60;;;0.90;;
40731;SDS011;26420;52.256;9.096;2024-02-16T00:13:14;4.43;;;1.20;;
40731;SDS011;26420;52.256;9.096;2024-02-16T00:18:17;4.00;;;1.20;;
40731;SDS011;26420;52.256;9.096;2024-02-16T00:23:19;1.30;;;0.90;;
40731;SDS011;26420;52.256;9.096;2024-02-16T00:28:23;2.00;;;0.93;;
40731;SDS011;26420;52.256;9.096;2024-02-16T00:33:25;2.47;;;1.02;;
40731;SDS011;26420;52.256;9.096;2024-02-16T00:38:30;3.92;;;1.00;;
40731;SDS011;26420;52.256;9.096;2024-02-16T00:43:33;2.42;;;0.95;;
40731;SDS011;26420;52.256;9.096;2024-02-16T00:48:35;1.70;;;0.80;;
40731;SDS011;26420;52.256;9.096;2024-02-16T00:53:37;1.73;;;0.93;;
40731;SDS011;26420;52.256;9.096;2024-02-16T00:58:40;3.47;;;1.07;;
40731;SDS011;26420;52.256;9.096;2024-02-16T01:03:45;2.83;;;1.00;;
40731;SDS011;26420;52.256;9.096;2024-02-16T01:08:47;2.55;;;1.05;;
40731;SDS011;26420;52.256;9.096;2024-02-16T01:13:50;1.60;;;1.20;;
40731;SDS011;26420;52.256;9.096;2024-02-16T01:18:52;4.07;;;0.90;;
40731;SDS011;26420;52.256;9.096;2024-02-16T01:23:55;4.25;;;1.20;;
40731;SDS011;26420;52.256;9.096;2024-02-16T01:29:00;1.13;;;0.90;;
40731;SDS011;26420;52.256;9.096;2024-02-16T01:34:03;1.35;;;0.93;;
40731;SDS011;26420;52.256;9.096;2024-02-16T01:39:06;1.23;;;0.80;;
40731;SDS011;26420;52.256;9.096;2024-02-16T01:44:08;2.70;;;1.00;;
40731;SDS011;26420;52.256;9.096;2024-02-16T01:49:10;2.33;;;0.88;;
40731;SDS011;26420;52.256;9.096;2024-02-16T01:54:16;0.95;;;0.80;;
40731;SDS011;26420;52.256;9.096;2024-02-16T01:59:19;3.50;;;0.90;;
40731;SDS011;26420;52.256;9.096;2024-02-16T02:04:21;2.73;;;1.10;;
40731;SDS011;26420;52.256;9.096;2024-02-16T02:09:24;1.80;;;0.90;;
40731;SDS011;26420;52.256;9.096;2024-02-16T02:14:26;1.60;;;0.80;;
40731;SDS011;26420;52.256;9.096;2024-02-16T02:19:29;1.77;;;0.93;;
40731;SDS011;26420;52.256;9.096;2024-02-16T02:24:32;1.83;;;0.90;;
40731;SDS011;26420;52.256;9.096;2024-02-16T02:29:34;1.60;;;1.00;;
40731;SDS011;26420;52.256;9.096;2024-02-16T02:34:36;3.45;;;1.00;;
40731;SDS011;26420;52.256;9.096;2024-02-16T02:39:39;2.37;;;1.00;;
40731;SDS011;26420;52.256;9.096;2024-02-16T02:44:41;1.90;;;1.00;;
40731;SDS011;26420;52.256;9.096;2024-02-16T02:49:51;1.35;;;0.93;;
40731;SDS011;26420;52.256;9.096;2024-02-16T02:54:53;1.13;;;0.83;;
40731;SDS011;26420;52.256;9.096;2024-02-16T03:00:02;1.77;;;1.05;;
40731;SDS011;26420;52.256;9.096;2024-02-16T03:05:05;2.40;;;1.05;;
40731;SDS011;26420;52.256;9.096;2024-02-16T03:10:08;2.27;;;0.80;;
40731;SDS011;26420;52.256;9.096;2024-02-16T03:15:11;2.00;;;0.70;;
40731;SDS011;26420;52.256;9.096;2024-02-16T03:20:13;1.63;;;0.90;;
40731;SDS011;26420;52.256;9.096;2024-02-16T03:25:15;3.13;;;1.10;;
40731;SDS011;26420;52.256;9.096;2024-02-16T03:30:17;1.70;;;0.80;;
40731;SDS011;26420;52.256;9.096;2024-02-16T03:35:20;3.67;;;1.00;;
40731;SDS011;26420;52.256;9.096;2024-02-16T03:40:23;2.60;;;1.08;;
40731;SDS011;26420;52.256;9.096;2024-02-16T03:45:25;1.33;;;0.70;;
40731;SDS011;26420;52.256;9.096;2024-02-16T03:50:31;0.98;;;0.80;;
40731;SDS011;26420;52.256;9.096;2024-02-16T03:55:33;0.97;;;0.70;;
40731;SDS011;26420;52.256;9.096;2024-02-16T04:00:37;3.05;;;0.90;;
40731;SDS011;26420;52.256;9.096;2024-02-16T04:05:40;0.80;;;0.80;;
40731;SDS011;26420;52.256;9.096;2024-02-16T04:10:42;1.95;;;0.80;;
40731;SDS011;26420;52.256;9.096;2024-02-16T04:15:44;0.87;;;0.70;;
40731;SDS011;26420;52.256;9.096;2024-02-16T04:20:48;1.25;;;0.90;;
40731;SDS011;26420;52.256;9.096;2024-02-16T04:25:50;3.30;;;0.95;;
40731;SDS011;26420;52.256;9.096;2024-02-16T04:30:53;1.25;;;0.80;;
40731;SDS011;26420;52.256;9.096;2024-02-16T04:35:55;1.70;;;1.00;;
40731;SDS011;26420;52.256;9.096;2024-02-16T04:40:57;0.87;;;0.70;;
40731;SDS011;26420;52.256;9.096;2024-02-16T04:46:00;1.92;;;1.13;;
40731;SDS011;26420;52.256;9.096;2024-02-16T04:51:02;1.77;;;1.10;;
40731;SDS011;26420;52.256;9.096;2024-02-16T04:56:04;1.85;;;0.90;;
40731;SDS011;26420;52.256;9.096;2024-02-16T05:01:07;2.50;;;1.07;;
40731;SDS011;26420;52.256;9.096;2024-02-16T05:06:09;1.10;;;1.00;;
40731;SDS011;26420;52.256;9.096;2024-02-16T05:11:12;3.28;;;0.77;;
40731;SDS011;26420;52.256;9.096;2024-02-16T05:16:14;2.72;;;0.75;;
40731;SDS011;26420;52.256;9.096;2024-02-16T05:21:17;2.72;;;1.23;;
40731;SDS011;26420;52.256;9.096;2024-02-16T05:26:20;1.52;;;1.00;;
40731;SDS011;26420;52.256;9.096;2024-02-16T05:31:22;1.33;;;0.83;;
40731;SDS011;26420;52.256;9.096;2024-02-16T05:36:24;1.20;;;0.90;;
40731;SDS011;26420;52.256;9.096;2024-02-16T05:41:31;2.40;;;1.10;;
40731;SDS011;26420;52.256;9.096;2024-02-16T05:46:34;1.33;;;0.80;;
40731;SDS011;26420;52.256;9.096;2024-02-16T05:51:39;0.70;;;0.70;;
40731;SDS011;26420;52.256;9.096;2024-02-16T05:56:42;1.53;;;0.90;;
40731;SDS011;26420;52.256;9.096;2024-02-16T06:01:45;5.10;;;1.10;;
40731;SDS011;26420;52.256;9.096;2024-02-16T06:06:48;1.10;;;0.90;;
40731;SDS011;26420;52.256;9.096;2024-02-16T06:11:51;3.20;;;1.20;;
40731;SDS011;26420;52.256;9.096;2024-02-16T06:16:53;1.75;;;1.15;;
40731;SDS011;26420;52.256;9.096;2024-02-16T06:22:01;2.72;;;1.27;;
40731;SDS011;26420;52.256;9.096;2024-02-16T06:27:03;1.85;;;1.10;;
40731;SDS011;26420;52.256;9.096;2024-02-16T06:32:05;1.43;;;0.80;;
40731;SDS011;26420;52.256;9.096;2024-02-16T06:37:08;2.03;;;1.00;;
40731;SDS011;26420;52.256;9.096;2024-02-16T06:42:10;2.80;;;1.17;;
40731;SDS011;26420;52.256;9.096;2024-02-16T06:47:13;1.33;;;1.15;;
40731;SDS011;26420;52.256;9.096;2024-02-16T06:52:15;1.23;;;1.13;;
40731;SDS011;26420;52.256;9.096;2024-02-16T06:57:18;1.90;;;1.27;;
40731;SDS011;26420;52.256;9.096;2024-02-16T07:02:21;3.42;;;1.10;;
40731;SDS011;26420;52.256;9.096;2024-02-16T07:07:24;1.80;;;1.13;;
40731;SDS011;26420;52.256;9.096;2024-02-16T07:12:26;1.27;;;0.98;;
40731;SDS011;26420;52.256;9.096;2024-02-16T07:17:28;1.10;;;0.93;;
40731;SDS011;26420;52.256;9.096;2024-02-16T07:22:31;2.08;;;1.40;;
40731;SDS011;26420;52.256;9.096;2024-02-16T07:27:34;1.67;;;1.03;;
40731;SDS011;26420;52.256;9.096;2024-02-16T07:32:36;2.88;;;1.20;;
40731;SDS011;26420;52.256;9.096;2024-02-16T07:37:39;1.55;;;1.10;;
40731;SDS011;26420;52.256;9.096;2024-02-16T07:42:43;2.63;;;1.10;;
40731;SDS011;26420;52.256;9.096;2024-02-16T07:47:46;1.40;;;0.87;;
40731;SDS011;26420;52.256;9.096;2024-02-16T07:52:49;2.35;;;1.17;;
40731;SDS011;26420;52.256;9.096;2024-02-16T07:57:52;1.53;;;1.20;;
40731;SDS011;26420;52.256;9.096;2024-02-16T08:02:54;2.20;;;1.10;;
40731;SDS011;26420;52.256;9.096;2024-02-16T08:07:56;3.55;;;1.33;;
40731;SDS011;26420;52.256;9.096;2024-02-16T08:12:59;1.63;;;1.10;;
40731;SDS011;26420;52.256;9.096;2024-02-16T08:18:01;2.40;;;1.30;;
40731;SDS011;26420;52.256;9.096;2024-02-16T08:23:04;1.73;;;1.23;;
40731;SDS011;26420;52.256;9.096;2024-02-16T08:28:06;1.20;;;1.10;;
40731;SDS011;26420;52.256;9.096;2024-02-16T08:33:10;4.30;;;1.20;;
40731;SDS011;26420;52.256;9.096;2024-02-16T08:38:14;2.13;;;1.20;;
40731;SDS011;26420;52.256;9.096;2024-02-16T08:43:16;2.50;;;1.23;;
40731;SDS011;26420;52.256;9.096;2024-02-16T08:48:18;2.33;;;1.30;;
40731;SDS011;26420;52.256;9.096;2024-02-16T08:53:21;3.03;;;1.30;;
40731;SDS011;26420;52.256;9.096;2024-02-16T08:58:23;2.92;;;1.30;;
40731;SDS011;26420;52.256;9.096;2024-02-16T09:03:25;1.57;;;1.20;;
40731;SDS011;26420;52.256;9.096;2024-02-16T09:08:28;3.50;;;1.40;;
40731;SDS011;26420;52.256;9.096;2024-02-16T09:13:35;1.90;;;1.10;;
40731;SDS011;26420;52.256;9.096;2024-02-16T09:18:42;1.80;;;0.93;;
40731;SDS011;26420;52.256;9.096;2024-02-16T09:23:44;1.20;;;1.10;;
40731;SDS011;26420;52.256;9.096;2024-02-16T09:28:46;2.37;;;1.07;;
40731;SDS011;26420;52.256;9.096;2024-02-16T09:33:48;5.00;;;1.35;;
40731;SDS011;26420;52.256;9.096;2024-02-16T09:38:53;2.53;;;1.30;;
40731;SDS011;26420;52.256;9.096;2024-02-16T09:43:55;1.75;;;1.23;;
40731;SDS011;26420;52.256;9.096;2024-02-16T09:49:00;1.97;;;1.20;;
40731;SDS011;26420;52.256;9.096;2024-02-16T09:54:05;3.22;;;1.10;;
40731;SDS011;26420;52.256;9.096;2024-02-16T09:59:10;2.00;;;1.10;;
40731;SDS011;26420;52.256;9.096;2024-02-16T10:04:13;1.75;;;1.23;;
40731;SDS011;26420;52.256;9.096;2024-02-16T10:09:25;36.27;;;14.80;;
40731;SDS011;26420;52.256;9.096;2024-02-16T10:14:28;3.87;;;2.50;;
40731;SDS011;26420;52.256;9.096;2024-02-16T10:19:41;4.57;;;2.70;;
40731;SDS011;26420;52.256;9.096;2024-02-16T10:24:44;4.10;;;1.40;;
40731;SDS011;26420;52.256;9.096;2024-02-16T10:29:47;2.95;;;1.45;;
40731;SDS011;26420;52.256;9.096;2024-02-16T10:34:53;3.22;;;1.80;;
40731;SDS011;26420;52.256;9.096;2024-02-16T10:39:56;4.65;;;2.00;;
40731;SDS011;26420;52.256;9.096;2024-02-16T10:44:59;4.32;;;3.13;;
40731;SDS011;26420;52.256;9.096;2024-02-16T10:50:02;1.70;;;1.27;;
40731;SDS011;26420;52.256;9.096;2024-02-16T10:55:06;3.25;;;1.60;;
40731;SDS011;26420;52.256;9.096;2024-02-16T11:00:11;1.50;;;1.10;;
40731;SDS011;26420;52.256;9.096;2024-02-16T11:05:14;1.40;;;0.90;;
40731;SDS011;26420;52.256;9.096;2024-02-16T11:10:20;1.73;;;1.13;;
40731;SDS011;26420;52.256;9.096;2024-02-16T11:15:30;2.28;;;1.17;;
40731;SDS011;26420;52.256;9.096;2024-02-16T11:20:38;1.67;;;1.27;;
40731;SDS011;26420;52.256;9.096;2024-02-16T11:25:49;2.47;;;1.17;;
40731;SDS011;26420;52.256;9.096;2024-02-16T11:30:54;10.23;;;1.70;;
40731;SDS011;26420;52.256;9.096;2024-02-16T11:36:04;3.17;;;1.30;;
40731;SDS011;26420;52.256;9.096;2024-02-16T11:41:10;3.50;;;2.08;;
40731;SDS011;26420;52.256;9.096;2024-02-16T11:46:13;5.68;;;1.35;;
40731;SDS011;26420;52.256;9.096;2024-02-16T11:51:16;2.50;;;1.50;;
40731;SDS011;26420;52.256;9.096;2024-02-16T11:56:23;1.90;;;1.55;;
40731;SDS011;26420;52.256;9.096;2024-02-16T12:01:26;2.35;;;1.30;;
40731;SDS011;26420;52.256;9.096;2024-02-16T12:06:28;2.38;;;1.30;;
40731;SDS011;26420;52.256;9.096;2024-02-16T12:11:31;2.85;;;1.40;;
40731;SDS011;26420;52.256;9.096;2024-02-16T12:16:34;2.83;;;1.50;;
40731;SDS011;26420;52.256;9.096;2024-02-16T12:21:37;6.17;;;2.90;;
40731;SDS011;26420;52.256;9.096;2024-02-16T12:26:40;6.40;;;1.70;;
40731;SDS011;26420;52.256;9.096;2024-02-16T12:31:46;2.67;;;1.80;;
40731;SDS011;26420;52.256;9.096;2024-02-16T12:36:50;4.53;;;1.63;;
40731;SDS011;26420;52.256;9.096;2024-02-16T12:41:52;3.53;;;1.40;;
40731;SDS011;26420;52.256;9.096;2024-02-16T12:46:55;3.90;;;1.70;;
40731;SDS011;26420;52.256;9.096;2024-02-16T12:51:57;5.03;;;1.90;;
40731;SDS011;26420;52.256;9.096;2024-02-16T12:57:00;3.13;;;1.60;;
40731;SDS011;26420;52.256;9.096;2024-02-16T13:02:02;5.80;;;1.70;;
40731;SDS011;26420;52.256;9.096;2024-02-16T13:07:05;2.60;;;1.90;;
40731;SDS011;26420;52.256;9.096;2024-02-16T13:12:07;5.50;;;1.83;;
40731;SDS011;26420;52.256;9.096;2024-02-16T13:17:10;5.18;;;1.77;;
40731;SDS011;26420;52.256;9.096;2024-02-16T13:22:14;3.38;;;1.80;;
40731;SDS011;26420;52.256;9.096;2024-02-16T13:27:16;4.93;;;2.20;;
40731;SDS011;26420;52.256;9.096;2024-02-16T13:32:19;5.00;;;2.42;;
40731;SDS011;26420;52.256;9.096;2024-02-16T13:37:21;4.23;;;2.00;;
40731;SDS011;26420;52.256;9.096;2024-02-16T13:42:24;3.85;;;2.20;;
40731;SDS011;26420;52.256;9.096;2024-02-16T13:47:28;3.50;;;2.13;;
40731;SDS011;26420;52.256;9.096;2024-02-16T13:52:30;3.50;;;2.50;;
40731;SDS011;26420;52.256;9.096;2024-02-16T13:57:32;5.13;;;3.03;;
40731;SDS011;26420;52.256;9.096;2024-02-16T14:02:34;6.82;;;3.33;;
40731;SDS011;26420;52.256;9.096;2024-02-16T14:07:37;6.33;;;3.70;;
40731;SDS011;26420;52.256;9.096;2024-02-16T14:12:51;4.35;;;3.53;;
40731;SDS011;26420;52.256;9.096;2024-02-16T14:17:53;6.37;;;3.97;;
40731;SDS011;26420;52.256;9.096;2024-02-16T14:22:56;9.48;;;4.78;;
40731;SDS011;26420;52.256;9.096;2024-02-16T14:27:58;6.93;;;4.40;;
40731;SDS011;26420;52.256;9.096;2024-02-16T14:33:00;8.68;;;4.95;;
40731;SDS011;26420;52.256;9.096;2024-02-16T14:38:06;7.15;;;3.92;;
40731;SDS011;26420;52.256;9.096;2024-02-16T14:43:08;7.70;;;4.30;;
40731;SDS011;26420;52.256;9.096;2024-02-16T14:48:11;7.43;;;4.38;;
40731;SDS011;26420;52.256;9.096;2024-02-16T14:53:15;7.80;;;4.70;;
40731;SDS011;26420;52.256;9.096;2024-02-16T14:58:24;7.13;;;4.88;;
40731;SDS011;26420;52.256;9.096;2024-02-16T15:03:27;9.30;;;6.00;;
40731;SDS011;26420;52.256;9.096;2024-02-16T15:08:32;9.83;;;6.03;;
40731;SDS011;26420;52.256;9.096;2024-02-16T15:13:34;10.07;;;5.75;;
40731;SDS011;26420;52.256;9.096;2024-02-16T15:18:39;14.30;;;7.40;;
40731;SDS011;26420;52.256;9.096;2024-02-16T15:23:41;11.20;;;6.78;;
40731;SDS011;26420;52.256;9.096;2024-02-16T15:28:43;14.75;;;7.57;;
40731;SDS011;26420;52.256;9.096;2024-02-16T15:33:45;13.20;;;7.57;;
40731;SDS011;26420;52.256;9.096;2024-02-16T15:38:51;13.03;;;6.60;;
40731;SDS011;26420;52.256;9.096;2024-02-16T15:43:57;16.67;;;7.32;;
40731;SDS011;26420;52.256;9.096;2024-02-16T15:49:04;14.67;;;6.67;;
40731;SDS011;26420;52.256;9.096;2024-02-16T15:54:07;9.27;;;6.27;;
40731;SDS011;26420;52.256;9.096;2024-02-16T15:59:09;8.48;;;5.22;;
40731;SDS011;26420;52.256;9.096;2024-02-16T16:04:12;6.35;;;4.93;;
40731;SDS011;26420;52.256;9.096;2024-02-16T16:09:15;8.90;;;4.90;;
40731;SDS011;26420;52.256;9.096;2024-02-16T16:14:17;6.65;;;4.75;;
40731;SDS011;26420;52.256;9.096;2024-02-16T16:19:20;5.20;;;3.87;;
40731;SDS011;26420;52.256;9.096;2024-02-16T16:24:23;7.78;;;3.72;;
40731;SDS011;26420;52.256;9.096;2024-02-16T16:29:25;5.77;;;3.70;;
40731;SDS011;26420;52.256;9.096;2024-02-16T16:34:28;4.78;;;3.38;;
40731;SDS011;26420;52.256;9.096;2024-02-16T16:39:31;3.90;;;3.08;;
40731;SDS011;26420;52.256;9.096;2024-02-16T16:44:33;5.43;;;3.28;;
40731;SDS011;26420;52.256;9.096;2024-02-16T16:49:39;8.17;;;3.40;;
40731;SDS011;26420;52.256;9.096;2024-02-16T16:54:42;5.72;;;3.10;;
40731;SDS011;26420;52.256;9.096;2024-02-16T16:59:45;5.75;;;3.28;;
40731;SDS011;26420;52.256;9.096;2024-02-16T17:04:47;6.38;;;3.28;;
40731;SDS011;26420;52.256;9.096;2024-02-16T17:09:51;6.70;;;3.58;;
40731;SDS011;26420;52.256;9.096;2024-02-16T17:14:55;8.23;;;3.30;;
40731;SDS011;26420;52.256;9.096;2024-02-16T17:19:58;4.30;;;3.35;;
40731;SDS011;26420;52.256;9.096;2024-02-16T17:25:05;4.37;;;3.00;;
40731;SDS011;26420;52.256;9.096;2024-02-16T17:30:09;5.30;;;2.87;;
40731;SDS011;26420;52.256;9.096;2024-02-16T17:35:13;5.47;;;3.15;;
40731;SDS011;26420;52.256;9.096;2024-02-16T17:40:15;4.78;;;3.47;;
40731;SDS011;26420;52.256;9.096;2024-02-16T17:45:19;5.93;;;3.85;;
40731;SDS011;26420;52.256;9.096;2024-02-16T17:50:22;6.27;;;3.80;;
40731;SDS011;26420;52.256;9.096;2024-02-16T17:55:26;7.53;;;4.22;;
40731;SDS011;26420;52.256;9.096;2024-02-16T18:00:28;4.82;;;3.25;;
40731;SDS011;26420;52.256;9.096;2024-02-16T18:05:31;4.68;;;3.35;;
40731;SDS011;26420;52.256;9.096;2024-02-16T18:10:34;4.45;;;3.58;;
40731;SDS011;26420;52.256;9.096;2024-02-16T18:15:36;4.25;;;3.30;;
40731;SDS011;26420;52.256;9.096;2024-02-16T18:20:39;6.30;;;3.73;;
40731;SDS011;26420;52.256;9.096;2024-02-16T18:25:41;5.43;;;3.88;;
40731;SDS011;26420;52.256;9.096;2024-02-16T18:30:44;7.70;;;4.70;;
40731;SDS011;26420;52.256;9.096;2024-02-16T18:35:46;6.57;;;4.70;;
40731;SDS011;26420;52.256;9.096;2024-02-16T18:40:48;8.57;;;4.75;;
40731;SDS011;26420;52.256;9.096;2024-02-16T18:45:51;7.23;;;4.63;;
40731;SDS011;26420;52.256;9.096;2024-02-16T18:50:53;5.82;;;4.10;;
40731;SDS011;26420;52.256;9.096;2024-02-16T18:55:56;5.60;;;3.67;;
40731;SDS011;26420;52.256;9.096;2024-02-16T19:00:58;6.85;;;4.20;;
40731;SDS011;26420;52.256;9.096;2024-02-16T19:06:00;6.38;;;4.18;;
40731;SDS011;26420;52.256;9.096;2024-02-16T19:11:02;7.13;;;4.33;;
40731;SDS011;26420;52.256;9.096;2024-02-16T19:16:05;6.63;;;3.88;;
40731;SDS011;26420;52.256;9.096;2024-02-16T19:21:08;4.55;;;3.13;;
40731;SDS011;26420;52.256;9.096;2024-02-16T19:26:10;6.38;;;3.00;;
40731;SDS011;26420;52.256;9.096;2024-02-16T19:31:12;4.40;;;3.07;;
40731;SDS011;26420;52.256;9.096;2024-02-16T19:36:15;5.32;;;3.00;;
40731;SDS011;26420;52.256;9.096;2024-02-16T19:41:18;3.92;;;3.00;;
40731;SDS011;26420;52.256;9.096;2024-02-16T19:46:20;3.90;;;3.17;;
40731;SDS011;26420;52.256;9.096;2024-02-16T19:51:22;7.20;;;3.25;;
40731;SDS011;26420;52.256;9.096;2024-02-16T19:56:24;6.87;;;3.67;;
40731;SDS011;26420;52.256;9.096;2024-02-16T20:01:27;6.50;;;3.70;;
40731;SDS011;26420;52.256;9.096;2024-02-16T20:06:29;6.97;;;4.40;;
40731;SDS011;26420;52.256;9.096;2024-02-16T20:11:31;8.00;;;4.40;;
40731;SDS011;26420;52.256;9.096;2024-02-16T20:16:35;9.05;;;4.70;;
40731;SDS011;26420;52.256;9.096;2024-02-16T20:21:39;7.70;;;4.60;;
40731;SDS011;26420;52.256;9.096;2024-02-16T20:26:41;10.60;;;5.38;;
40731;SDS011;26420;52.256;9.096;2024-02-16T20:31:43;8.23;;;4.53;;
40731;SDS011;26420;52.256;9.096;2024-02-16T20:36:46;7.15;;;4.28;;
40731;SDS011;26420;52.256;9.096;2024-02-16T20:41:51;6.13;;;4.20;;
40731;SDS011;26420;52.256;9.096;2024-02-16T20:46:53;11.38;;;5.55;;
40731;SDS011;26420;52.256;9.096;2024-02-16T20:51:55;6.30;;;4.23;;
40731;SDS011;26420;52.256;9.096;2024-02-16T20:56:57;5.13;;;3.83;;
40731;SDS011;26420;52.256;9.096;2024-02-16T21:02:01;4.28;;;3.17;;
40731;SDS011;26420;52.256;9.096;2024-02-16T21:07:04;3.97;;;3.00;;
40731;SDS011;26420;52.256;9.096;2024-02-16T21:12:06;4.30;;;2.80;;
40731;SDS011;26420;52.256;9.096;2024-02-16T21:17:09;4.37;;;2.60;;
40731;SDS011;26420;52.256;9.096;2024-02-16T21:22:12;3.80;;;2.55;;
40731;SDS011;26420;52.256;9.096;2024-02-16T21:27:15;3.53;;;2.70;;
40731;SDS011;26420;52.256;9.096;2024-02-16T21:32:17;4.82;;;3.13;;
40731;SDS011;26420;52.256;9.096;2024-02-16T21:37:20;4.43;;;3.63;;
40731;SDS011;26420;52.256;9.096;2024-02-16T21:42:22;4.82;;;3.85;;
40731;SDS011;26420;52.256;9.096;2024-02-16T21:47:25;8.50;;;4.30;;
40731;SDS011;26420;52.256;9.096;2024-02-16T21:52:28;5.77;;;3.83;;
40731;SDS011;26420;52.256;9.096;2024-02-16T21:57:30;6.30;;;4.80;;
40731;SDS011;26420;52.256;9.096;2024-02-16T22:02:33;5.80;;;3.88;;
40731;SDS011;26420;52.256;9.096;2024-02-16T22:07:35;8.13;;;4.63;;
40731;SDS011;26420;52.256;9.096;2024-02-16T22:12:37;8.13;;;4.77;;
40731;SDS011;26420;52.256;9.096;2024-02-16T22:17:39;9.07;;;4.78;;
40731;SDS011;26420;52.256;9.096;2024-02-16T22:22:42;10.17;;;5.47;;
40731;SDS011;26420;52.256;9.096;2024-02-16T22:27:44;8.20;;;4.90;;
40731;SDS011;26420;52.256;9.096;2024-02-16T22:32:47;8.10;;;5.25;;
40731;SDS011;26420;52.256;9.096;2024-02-16T22:37:49;9.45;;;5.47;;
40731;SDS011;26420;52.256;9.096;2024-02-16T22:42:51;9.13;;;5.28;;
40731;SDS011;26420;52.256;9.096;2024-02-16T22:47:54;9.20;;;5.20;;
40731;SDS011;26420;52.256;9.096;2024-02-16T22:52:56;10.43;;;6.15;;
40731;SDS011;26420;52.256;9.096;2024-02-16T22:57:59;9.75;;;5.82;;
40731;SDS011;26420;52.256;9.096;2024-02-16T23:03:01;12.05;;;6.05;;
40731;SDS011;26420;52.256;9.096;2024-02-16T23:08:05;10.30;;;6.17;;
40731;SDS011;26420;52.256;9.096;2024-02-16T23:13:08;10.38;;;6.10;;
40731;SDS011;26420;52.256;9.096;2024-02-16T23:18:13;12.23;;;6.80;;
40731;SDS011;26420;52.256;9.096;2024-02-16T23:23:16;12.15;;;6.28;;
40731;SDS011;26420;52.256;9.096;2024-02-16T23:28:18;12.60;;;6.18;;
40731;SDS011;26420;52.256;9.096;2024-02-16T23:33:21;14.77;;;6.80;;
40731;SDS011;26420;52.256;9.096;2024-02-16T23:38:24;13.95;;;6.72;;
40731;SDS011;26420;52.256;9.096;2024-02-16T23:43:26;11.87;;;6.67;;
40731;SDS011;26420;52.256;9.096;2024-02-16T23:48:29;13.45;;;7.47;;
40731;SDS011;26420;52.256;9.096;2024-02-16T23:53:33;13.20;;;6.35;;
40731;SDS011;26420;52.256;9.096;2024-02-16T23:58:35;12.35;;;7.45;;
